This is the latest recevied weather packets stored in our database for station/object DH1FR-13. If no packets are shown the sender has not sent any weather packets the latest 10 day(s).
| Time | Temp. | Humidity | Pressure | Rain* | Wind** | Luminosity | Snow |
|---|---|---|---|---|---|---|---|
| 1787516401 | 10.56° C | 86% | 1026.6 hPa | 0.25 mm | 0 m/s | - | - |
| 1787515801 | 11.11° C | 85% | 1026.7 hPa | 0.25 mm | 0 m/s | - | - |
| 1787515200 | 11.11° C | 85% | 1026.5 hPa | 0.25 mm | 0 m/s | - | - |
| 1787514600 | 11.67° C | 84% | 1026.6 hPa | 0.25 mm | 0 m/s | - | - |
| 1787514001 | 11.67° C | 83% | 1026.4 hPa | 0.25 mm | 0 m/s | - | - |
| 1787513400 | 12.22° C | 83% | 1026.5 hPa | 0.25 mm | 0 m/s | - | - |
| 1787512800 | 12.22° C | 81% | 1026.5 hPa | 0.25 mm | 0 m/s | - | - |
| 1787512200 | 12.78° C | 78% | 1026.5 hPa | 0.25 mm | 0 m/s | - | - |
| 1787511600 | 13.33° C | 79% | 1026.5 hPa | 0.25 mm | 0 m/s | - | - |
| 1787511001 | 13.33° C | 78% | 1026.2 hPa | 0.25 mm | 0 m/s | - | - |
| 1787510401 | 13.89° C | 75% | 1026.3 hPa | 0.25 mm | 0 m/s | - | - |
| 1787509801 | 14.44° C | 73% | 1026.1 hPa | 0.25 mm | 0 m/s | - | - |
| 1787509201 | 15° C | 70% | 1026.1 hPa | 0.25 mm | 0 m/s | - | - |
| 1787508601 | 16.11° C | 66% | 1026.3 hPa | 0.25 mm | 0 m/s | - | - |
| 1787508001 | 16.11° C | 65% | 1026.2 hPa | 0.25 mm | 0 m/s | - | - |
| 1787507401 | 16.67° C | 62% | 1026.1 hPa | 0.25 mm | 0 m/s | - | - |
| 1787506800 | 17.22° C | 60% | 1026.4 hPa | 0.25 mm | 0 m/s | - | - |
| 1787506202 | 17.78° C | 57% | 1026.4 hPa | 0.25 mm | 0 m/s | - | - |
| 1787505600 | 17.78° C | 56% | 1026.4 hPa | 0.25 mm | 0 m/s | - | - |
| 1787505000 | 18.89° C | 54% | 1026.4 hPa | 0.25 mm | 0 m/s | - | - |
| 1787504400 | 17.78° C | 55% | 1026.6 hPa | 0.25 mm | 0 m/s | - | - |
| 1787503801 | 17.78° C | 55% | 1026.8 hPa | 0.25 mm | 0 m/s | - | - |
| 1787503201 | 17.78° C | 56% | 1026.7 hPa | 0.25 mm | 0 m/s | - | - |
| 1787502601 | 18.33° C | 53% | 1026.6 hPa | 0.25 mm | 0 m/s | - | - |
| 1787502000 | 18.89° C | 52% | 1026.5 hPa | 0.25 mm | 0 m/s | - | - |
* Rain latest hour (hover to see other rain measurements)
** Current wind speed in m/s (hover to see current wind gust speed)